Etusivu
METAR-TAF:

METAR-TAF

Lentoasemat :

Sundsvall-Timrån lentoasema

Sundsvall-Härnösand, Ruotsi

Leveyspiiri: 62-32N, Pituuspiiri: 017-27E, korkeus merenpinnasta: 4 m

Tämänhetkinen sää

Tämä raportti tehtiin 20 minuuttia sitten, kello 13.20 UTC
Tuuli 8 kn etelästä/kaakosta
Lämpötila 19°C
Kosteus 46%
Ilmanpaine 1019 hPa
Näkyvyys 10 km tai enemmän
ei pilviä alle 1500 m:ssä eikä cumulonimbus-pilviä

METAR: ESNN 201320Z 15008KT CAVOK 19/07 Q1019

Aika: 15:40 (13:40 UTC)

Sääennuste

Tämä raportti tehtiin 2 tuntia ja 10 minuuttia sitten, kello 11.30 UTC
Ennuste voimassa 20. päivästä klo 12 UTC - 20. päivään klo 21 UTC
Tuuli 10 kn etelästä
Näkyvyys 10 km tai enemmän
ei pilviä alle 1500 m:ssä eikä cumulonimbus-pilviä

TAF: ESNN 201130Z 2012/2021 18010KT CAVOK

Säähavainnot ja -ennusteet yli 4000 lentoasemalta (METAR- ja TAF-raportit).

Käytössä olevat sääasemat on merkitty karttaan keltaisilla ja punaisilla pisteillä.

Aseta hiiri pisteen päälle nähdäksesi sääaseman nimen.

Klikkaa sitten nähdäksesi säähavainnot ja -ennusteet.

Kartan vaihtaminen: klikkaa mustalla rastilla varustettuja vihreitä pisteitä, niin voit zoomata sisään; viivalla varustettua vihreää pistettä, niin voit zoomata ulos tai vihreitä nuolia, niin pääset viereisille kartoille.


METAR-TAF: